Woodburn, Mississippi
Current Conditions -  °F | °C
As of 10:53 PM on Friday 24 Oct 2014 (Local Time) from KGLH Reporting Station
Clear Clear  
Wind Chill: 12°   Ceiling: Unl
Heat Index: 12°   Visibility: 9mi
Dew Point: 10°   Wind: 0mph
Humidity: 86%   Direction: NA
Pressure: 30.11"   Gusts: NA
Location:  33.4825°N, 90.6856°W
Report Text: KGLH 250353Z AUTO 00000KT 9SM CLR 12/10 A3011 RMK AO2 SLP204 T01220100
Loading
Personal Weather Stations






























Interactive Weather Map
Tropical Storm Tracking
New forecast layout! Learn more

10-Day Weather Forecast

Advertisements
Track Severe Weather on mobile